sensor_id;sensor_type;location;lat;lon;timestamp;pressure;altitude;pressure_sealevel;temperature;humidity
60319;BME280;46163;52.306;5.634;2023-05-23T00:01:35;101746.53;;;21.80;59.08
60319;BME280;46163;52.306;5.634;2023-05-23T00:04:04;101746.78;;;21.79;58.92
60319;BME280;46163;52.306;5.634;2023-05-23T00:06:30;101761.41;;;21.78;58.52
60319;BME280;46163;52.306;5.634;2023-05-23T00:08:56;101751.66;;;21.77;58.98
60319;BME280;46163;52.306;5.634;2023-05-23T00:11:22;101760.84;;;21.76;59.09
60319;BME280;46163;52.306;5.634;2023-05-23T00:13:52;101756.25;;;21.76;58.96
60319;BME280;46163;52.306;5.634;2023-05-23T00:16:18;101757.31;;;21.75;58.84
60319;BME280;46163;52.306;5.634;2023-05-23T00:18:44;101758.66;;;21.72;58.65
60319;BME280;46163;52.306;5.634;2023-05-23T00:21:10;101757.50;;;21.68;59.01
60319;BME280;46163;52.306;5.634;2023-05-23T00:23:37;101757.84;;;21.72;59.11
60319;BME280;46163;52.306;5.634;2023-05-23T00:26:09;101763.47;;;21.70;58.61
60319;BME280;46163;52.306;5.634;2023-05-23T00:28:36;101765.38;;;21.70;58.93
60319;BME280;46163;52.306;5.634;2023-05-23T00:31:02;101758.31;;;21.69;58.69
60319;BME280;46163;52.306;5.634;2023-05-23T00:33:28;101770.25;;;21.68;58.69
60319;BME280;46163;52.306;5.634;2023-05-23T00:35:54;101763.19;;;21.67;58.87
60319;BME280;46163;52.306;5.634;2023-05-23T00:38:20;101771.56;;;21.65;58.81
60319;BME280;46163;52.306;5.634;2023-05-23T00:40:46;101768.03;;;21.65;58.71
60319;BME280;46163;52.306;5.634;2023-05-23T00:43:12;101783.47;;;21.64;58.73
60319;BME280;46163;52.306;5.634;2023-05-23T00:45:38;101777.25;;;21.64;58.94
60319;BME280;46163;52.306;5.634;2023-05-23T00:48:04;101778.28;;;21.63;58.84
60319;BME280;46163;52.306;5.634;2023-05-23T00:50:30;101774.44;;;21.59;58.68
60319;BME280;46163;52.306;5.634;2023-05-23T00:52:57;101770.66;;;21.60;59.29
60319;BME280;46163;52.306;5.634;2023-05-23T00:55:24;101764.44;;;21.59;59.07
60319;BME280;46163;52.306;5.634;2023-05-23T00:57:53;101768.72;;;21.55;58.73
60319;BME280;46163;52.306;5.634;2023-05-23T01:00:20;101776.34;;;21.58;59.07
60319;BME280;46163;52.306;5.634;2023-05-23T01:02:47;101769.56;;;21.56;58.72
60319;BME280;46163;52.306;5.634;2023-05-23T01:05:16;101774.97;;;21.56;59.17
60319;BME280;46163;52.306;5.634;2023-05-23T01:07:51;101783.09;;;21.56;58.98
60319;BME280;46163;52.306;5.634;2023-05-23T01:10:26;101777.09;;;21.54;58.78
60319;BME280;46163;52.306;5.634;2023-05-23T01:15:44;101765.13;;;21.50;59.04
60319;BME280;46163;52.306;5.634;2023-05-23T01:18:17;101782.72;;;21.47;58.86
60319;BME280;46163;52.306;5.634;2023-05-23T01:20:53;101776.78;;;21.50;58.84
60319;BME280;46163;52.306;5.634;2023-05-23T01:29:12;101785.63;;;21.45;59.07
60319;BME280;46163;52.306;5.634;2023-05-23T01:31:42;101782.94;;;21.45;58.84
60319;BME280;46163;52.306;5.634;2023-05-23T01:34:11;101785.91;;;21.44;59.02
60319;BME280;46163;52.306;5.634;2023-05-23T01:36:42;101790.50;;;21.43;58.84
60319;BME280;46163;52.306;5.634;2023-05-23T01:39:13;101786.16;;;21.42;59.29
60319;BME280;46163;52.306;5.634;2023-05-23T01:41:38;101781.81;;;21.41;59.26
60319;BME280;46163;52.306;5.634;2023-05-23T01:44:04;101783.94;;;21.39;58.94
60319;BME280;46163;52.306;5.634;2023-05-23T01:46:30;101783.13;;;21.39;58.89
60319;BME280;46163;52.306;5.634;2023-05-23T01:48:57;101783.41;;;21.37;59.13
60319;BME280;46163;52.306;5.634;2023-05-23T01:51:23;101782.22;;;21.33;59.08
60319;BME280;46163;52.306;5.634;2023-05-23T01:53:49;101791.50;;;21.37;59.06
60319;BME280;46163;52.306;5.634;2023-05-23T01:56:15;101792.56;;;21.36;59.18
60319;BME280;46163;52.306;5.634;2023-05-23T01:58:41;101795.78;;;21.33;59.17
60319;BME280;46163;52.306;5.634;2023-05-23T02:01:08;101789.53;;;21.33;58.86
60319;BME280;46163;52.306;5.634;2023-05-23T02:03:34;101793.88;;;21.34;59.14
60319;BME280;46163;52.306;5.634;2023-05-23T02:05:59;101790.28;;;21.28;59.09
60319;BME280;46163;52.306;5.634;2023-05-23T02:08:27;101801.19;;;21.33;59.40
60319;BME280;46163;52.306;5.634;2023-05-23T02:10:53;101802.25;;;21.32;58.95
60319;BME280;46163;52.306;5.634;2023-05-23T02:13:18;101801.69;;;21.30;59.04
60319;BME280;46163;52.306;5.634;2023-05-23T02:15:43;101798.41;;;21.28;58.86
60319;BME280;46163;52.306;5.634;2023-05-23T02:18:09;101806.50;;;21.28;58.92
60319;BME280;46163;52.306;5.634;2023-05-23T02:20:34;101801.34;;;21.27;58.99
60319;BME280;46163;52.306;5.634;2023-05-23T02:23:00;101808.41;;;21.28;58.83
60319;BME280;46163;52.306;5.634;2023-05-23T02:25:25;101813.22;;;21.26;59.24
60319;BME280;46163;52.306;5.634;2023-05-23T02:27:51;101817.00;;;21.25;59.06
60319;BME280;46163;52.306;5.634;2023-05-23T02:30:16;101803.88;;;21.16;58.68
60319;BME280;46163;52.306;5.634;2023-05-23T02:32:42;101815.94;;;21.26;59.14
60319;BME280;46163;52.306;5.634;2023-05-23T02:35:07;101825.38;;;21.23;59.12
60319;BME280;46163;52.306;5.634;2023-05-23T02:37:34;101820.78;;;21.24;59.25
60319;BME280;46163;52.306;5.634;2023-05-23T02:39:59;101823.75;;;21.22;59.19
60319;BME280;46163;52.306;5.634;2023-05-23T02:42:25;101829.16;;;21.22;59.17
60319;BME280;46163;52.306;5.634;2023-05-23T02:44:51;101828.59;;;21.20;58.93
60319;BME280;46163;52.306;5.634;2023-05-23T02:47:16;101828.59;;;21.20;59.11
60319;BME280;46163;52.306;5.634;2023-05-23T02:49:42;101832.94;;;21.21;58.92
60319;BME280;46163;52.306;5.634;2023-05-23T02:52:07;101825.53;;;21.16;58.90
60319;BME280;46163;52.306;5.634;2023-05-23T02:54:32;101837.75;;;21.19;58.81
60319;BME280;46163;52.306;5.634;2023-05-23T02:57:00;101824.47;;;21.17;59.25
60319;BME280;46163;52.306;5.634;2023-05-23T02:59:25;101829.06;;;21.17;59.28
60319;BME280;46163;52.306;5.634;2023-05-23T03:01:51;101829.00;;;21.12;58.94
60319;BME280;46163;52.306;5.634;2023-05-23T03:04:19;101828.50;;;21.15;58.85
60319;BME280;46163;52.306;5.634;2023-05-23T03:06:45;101817.00;;;21.08;59.42
60319;BME280;46163;52.306;5.634;2023-05-23T03:09:14;101829.81;;;21.12;59.17
60319;BME280;46163;52.306;5.634;2023-05-23T03:11:41;101831.13;;;21.10;59.02
60319;BME280;46163;52.306;5.634;2023-05-23T03:14:07;101839.81;;;21.12;58.88
60319;BME280;46163;52.306;5.634;2023-05-23T03:16:32;101851.69;;;21.11;59.22
60319;BME280;46163;52.306;5.634;2023-05-23T03:18:57;101849.00;;;21.11;59.23
60319;BME280;46163;52.306;5.634;2023-05-23T03:21:23;101841.94;;;21.10;58.96
60319;BME280;46163;52.306;5.634;2023-05-23T03:23:49;101842.19;;;21.08;58.92
60319;BME280;46163;52.306;5.634;2023-05-23T03:26:15;101847.59;;;21.08;58.92
60319;BME280;46163;52.306;5.634;2023-05-23T03:28:40;101848.69;;;21.07;59.32
60319;BME280;46163;52.306;5.634;2023-05-23T03:31:06;101850.56;;;21.07;59.09
60319;BME280;46163;52.306;5.634;2023-05-23T03:33:32;101853.28;;;21.07;58.91
60319;BME280;46163;52.306;5.634;2023-05-23T03:35:57;101845.88;;;21.02;58.93
60319;BME280;46163;52.306;5.634;2023-05-23T03:38:23;101854.59;;;21.04;58.92
60319;BME280;46163;52.306;5.634;2023-05-23T03:40:48;101850.00;;;21.05;59.32
60319;BME280;46163;52.306;5.634;2023-05-23T03:43:13;101844.75;;;20.98;58.97
60319;BME280;46163;52.306;5.634;2023-05-23T03:45:39;101858.38;;;21.03;59.10
60319;BME280;46163;52.306;5.634;2023-05-23T03:48:04;101859.66;;;21.01;59.15
60319;BME280;46163;52.306;5.634;2023-05-23T03:50:30;101853.44;;;21.00;59.07
60319;BME280;46163;52.306;5.634;2023-05-23T03:52:55;101868.59;;;21.01;59.29
60319;BME280;46163;52.306;5.634;2023-05-23T03:55:21;101866.94;;;21.00;59.28
60319;BME280;46163;52.306;5.634;2023-05-23T03:57:48;101863.69;;;20.98;58.96
60319;BME280;46163;52.306;5.634;2023-05-23T04:00:15;101866.06;;;20.95;59.32
60319;BME280;46163;52.306;5.634;2023-05-23T04:02:40;101871.81;;;20.98;59.16
60319;BME280;46163;52.306;5.634;2023-05-23T04:05:06;101863.00;;;20.91;58.99
60319;BME280;46163;52.306;5.634;2023-05-23T04:07:32;101882.31;;;20.95;58.97
60319;BME280;46163;52.306;5.634;2023-05-23T04:10:01;101876.06;;;20.94;59.26
60319;BME280;46163;52.306;5.634;2023-05-23T04:12:27;101879.81;;;20.93;59.05
60319;BME280;46163;52.306;5.634;2023-05-23T04:14:54;101894.16;;;20.94;59.33
60319;BME280;46163;52.306;5.634;2023-05-23T04:17:20;101888.19;;;20.92;59.33
60319;BME280;46163;52.306;5.634;2023-05-23T04:19:47;101892.53;;;20.93;58.93
60319;BME280;46163;52.306;5.634;2023-05-23T04:22:12;101890.06;;;20.91;59.25
60319;BME280;46163;52.306;5.634;2023-05-23T04:24:40;101886.53;;;20.91;59.24
60319;BME280;46163;52.306;5.634;2023-05-23T04:27:05;101893.03;;;20.89;59.08
60319;BME280;46163;52.306;5.634;2023-05-23T04:29:32;101893.28;;;20.88;59.03
60319;BME280;46163;52.306;5.634;2023-05-23T04:31:58;101895.16;;;20.87;58.88
60319;BME280;46163;52.306;5.634;2023-05-23T04:34:25;101895.16;;;20.87;59.08
60319;BME280;46163;52.306;5.634;2023-05-23T04:36:51;101909.75;;;20.86;59.24
60319;BME280;46163;52.306;5.634;2023-05-23T04:39:18;101912.47;;;20.86;59.32
60319;BME280;46163;52.306;5.634;2023-05-23T04:41:43;101912.09;;;20.83;59.30
60319;BME280;46163;52.306;5.634;2023-05-23T04:44:12;101914.56;;;20.84;59.09
60319;BME280;46163;52.306;5.634;2023-05-23T04:46:39;101911.28;;;20.82;59.11
60319;BME280;46163;52.306;5.634;2023-05-23T04:49:09;101914.00;;;20.82;58.92
60319;BME280;46163;52.306;5.634;2023-05-23T04:51:35;101920.47;;;20.81;59.11
60319;BME280;46163;52.306;5.634;2023-05-23T04:54:01;101910.16;;;20.78;59.13
60319;BME280;46163;52.306;5.634;2023-05-23T04:56:28;101918.25;;;20.78;59.29
60319;BME280;46163;52.306;5.634;2023-05-23T04:58:54;101921.78;;;20.79;59.21
60319;BME280;46163;52.306;5.634;2023-05-23T05:01:20;101925.56;;;20.78;59.12
60319;BME280;46163;52.306;5.634;2023-05-23T05:03:48;101933.69;;;20.78;59.31
60319;BME280;46163;52.306;5.634;2023-05-23T05:06:14;101934.50;;;20.78;58.90
60319;BME280;46163;52.306;5.634;2023-05-23T05:08:41;101947.19;;;20.78;58.96
60319;BME280;46163;52.306;5.634;2023-05-23T05:11:08;101950.16;;;20.76;59.33
60319;BME280;46163;52.306;5.634;2023-05-23T05:13:33;101954.50;;;20.77;59.05
60319;BME280;46163;52.306;5.634;2023-05-23T05:15:59;101963.06;;;20.74;59.30
60319;BME280;46163;52.306;5.634;2023-05-23T05:18:25;101962.63;;;20.77;58.82
60319;BME280;46163;52.306;5.634;2023-05-23T05:20:51;101962.84;;;20.76;59.16
60319;BME280;46163;52.306;5.634;2023-05-23T05:23:17;101964.72;;;20.75;59.17
60319;BME280;46163;52.306;5.634;2023-05-23T05:25:42;101969.31;;;20.75;59.34
60319;BME280;46163;52.306;5.634;2023-05-23T05:28:08;101966.16;;;20.66;59.25
60319;BME280;46163;52.306;5.634;2023-05-23T05:30:33;101980.03;;;20.70;59.24
60319;BME280;46163;52.306;5.634;2023-05-23T05:33:00;101973.81;;;20.69;59.04
60319;BME280;46163;52.306;5.634;2023-05-23T05:35:29;101999.56;;;20.72;58.91
60319;BME280;46163;52.306;5.634;2023-05-23T05:37:55;101990.63;;;20.71;58.96
60319;BME280;46163;52.306;5.634;2023-05-23T05:40:20;101996.28;;;20.70;58.67
60319;BME280;46163;52.306;5.634;2023-05-23T05:42:46;102005.47;;;20.69;58.81
60319;BME280;46163;52.306;5.634;2023-05-23T05:45:11;102007.34;;;20.68;58.54
60319;BME280;46163;52.306;5.634;2023-05-23T05:47:37;102015.66;;;20.67;58.77
60319;BME280;46163;52.306;5.634;2023-05-23T05:50:06;102017.34;;;20.68;58.55
60319;BME280;46163;52.306;5.634;2023-05-23T05:52:35;102014.84;;;20.66;59.19
60319;BME280;46163;52.306;5.634;2023-05-23T05:55:12;102024.50;;;20.62;59.10
60319;BME280;46163;52.306;5.634;2023-05-23T05:57:39;102013.94;;;20.60;58.43
60319;BME280;46163;52.306;5.634;2023-05-23T06:00:06;102010.53;;;20.53;56.73
60319;BME280;46163;52.306;5.634;2023-05-23T06:02:43;102025.00;;;20.59;56.39
60319;BME280;46163;52.306;5.634;2023-05-23T06:05:12;102021.25;;;20.60;56.30
60319;BME280;46163;52.306;5.634;2023-05-23T06:07:40;102020.41;;;20.59;56.53
60319;BME280;46163;52.306;5.634;2023-05-23T06:10:06;102023.13;;;20.59;56.46
60319;BME280;46163;52.306;5.634;2023-05-23T06:12:36;102017.94;;;20.58;56.40
60319;BME280;46163;52.306;5.634;2023-05-23T06:15:01;102035.81;;;20.59;56.19
60319;BME280;46163;52.306;5.634;2023-05-23T06:17:27;102032.06;;;20.60;56.02
60319;BME280;46163;52.306;5.634;2023-05-23T06:19:53;102027.72;;;20.59;55.69
60319;BME280;46163;52.306;5.634;2023-05-23T06:22:18;102033.69;;;20.61;55.75
60319;BME280;46163;52.306;5.634;2023-05-23T06:24:43;102035.56;;;20.60;56.23
60319;BME280;46163;52.306;5.634;2023-05-23T06:27:09;102030.41;;;20.59;56.07
60319;BME280;46163;52.306;5.634;2023-05-23T06:29:35;102033.69;;;20.61;56.07
60319;BME280;46163;52.306;5.634;2023-05-23T06:32:01;102041.00;;;20.60;56.07
60319;BME280;46163;52.306;5.634;2023-05-23T06:34:27;102036.66;;;20.59;56.64
60319;BME280;46163;52.306;5.634;2023-05-23T06:36:53;102044.97;;;20.58;56.48
60319;BME280;46163;52.306;5.634;2023-05-23T06:39:19;102042.25;;;20.58;56.74
60319;BME280;46163;52.306;5.634;2023-05-23T06:41:45;102043.94;;;20.59;56.64
60319;BME280;46163;52.306;5.634;2023-05-23T06:44:10;102038.53;;;20.59;56.74
60319;BME280;46163;52.306;5.634;2023-05-23T06:46:37;102020.91;;;20.45;57.02
60319;BME280;46163;52.306;5.634;2023-05-23T06:49:03;102058.28;;;20.59;56.96
60319;BME280;46163;52.306;5.634;2023-05-23T06:51:28;102051.81;;;20.60;57.38
60319;BME280;46163;52.306;5.634;2023-05-23T06:53:54;102056.16;;;20.62;57.40
60319;BME280;46163;52.306;5.634;2023-05-23T06:56:22;102055.34;;;20.61;57.28
60319;BME280;46163;52.306;5.634;2023-05-23T06:58:47;102055.56;;;20.59;57.24
60319;BME280;46163;52.306;5.634;2023-05-23T07:01:13;102057.47;;;20.59;57.34
60319;BME280;46163;52.306;5.634;2023-05-23T07:03:39;102062.75;;;20.54;57.46
60319;BME280;46163;52.306;5.634;2023-05-23T07:06:06;102062.50;;;20.55;57.48
60319;BME280;46163;52.306;5.634;2023-05-23T07:08:32;102067.91;;;20.55;57.48
60319;BME280;46163;52.306;5.634;2023-05-23T07:10:57;102073.91;;;20.57;57.76
60319;BME280;46163;52.306;5.634;2023-05-23T07:13:23;102083.91;;;20.57;58.16
60319;BME280;46163;52.306;5.634;2023-05-23T07:15:48;102084.97;;;20.56;58.57
60319;BME280;46163;52.306;5.634;2023-05-23T07:18:14;102077.91;;;20.55;58.17
60319;BME280;46163;52.306;5.634;2023-05-23T07:20:39;102082.00;;;20.57;58.18
60319;BME280;46163;52.306;5.634;2023-05-23T07:23:05;102085.78;;;20.56;58.39
60319;BME280;46163;52.306;5.634;2023-05-23T07:25:33;102078.97;;;20.54;58.36
60319;BME280;46163;52.306;5.634;2023-05-23T07:27:58;102091.56;;;20.60;58.44
60319;BME280;46163;52.306;5.634;2023-05-23T07:30:24;102087.31;;;20.64;58.22
60319;BME280;46163;52.306;5.634;2023-05-23T07:32:49;102090.59;;;20.66;58.08
60319;BME280;46163;52.306;5.634;2023-05-23T07:35:17;102094.13;;;20.67;57.92
60319;BME280;46163;52.306;5.634;2023-05-23T07:37:42;102092.47;;;20.66;57.72
60319;BME280;46163;52.306;5.634;2023-05-23T07:40:08;102088.81;;;20.72;57.80
60319;BME280;46163;52.306;5.634;2023-05-23T07:42:35;102081.78;;;20.71;58.08
60319;BME280;46163;52.306;5.634;2023-05-23T07:45:00;102080.47;;;20.73;58.30
60319;BME280;46163;52.306;5.634;2023-05-23T07:47:28;102083.28;;;20.78;58.14
60319;BME280;46163;52.306;5.634;2023-05-23T07:49:54;102083.75;;;20.75;57.96
60319;BME280;46163;52.306;5.634;2023-05-23T07:52:20;102086.56;;;20.80;58.09
60319;BME280;46163;52.306;5.634;2023-05-23T07:54:45;102070.72;;;20.72;58.47
60319;BME280;46163;52.306;5.634;2023-05-23T07:57:11;102094.13;;;20.78;58.43
60319;BME280;46163;52.306;5.634;2023-05-23T07:59:37;102091.66;;;20.77;58.73
60319;BME280;46163;52.306;5.634;2023-05-23T08:02:03;102092.81;;;20.81;58.55
60319;BME280;46163;52.306;5.634;2023-05-23T08:04:29;102096.09;;;20.83;58.55
60319;BME280;46163;52.306;5.634;2023-05-23T08:06:55;102096.09;;;20.83;58.57
60319;BME280;46163;52.306;5.634;2023-05-23T08:09:22;102084.69;;;20.81;58.58
60319;BME280;46163;52.306;5.634;2023-05-23T08:11:48;102096.91;;;20.83;58.43
60319;BME280;46163;52.306;5.634;2023-05-23T08:14:13;102098.09;;;20.87;58.63
60319;BME280;46163;52.306;5.634;2023-05-23T08:19:43;102100.06;;;20.92;58.14
60319;BME280;46163;52.306;5.634;2023-05-23T08:22:09;102097.84;;;20.89;58.07
60319;BME280;46163;52.306;5.634;2023-05-23T08:24:35;102112.53;;;20.93;58.08
60319;BME280;46163;52.306;5.634;2023-05-23T08:27:00;102111.72;;;20.93;57.28
60319;BME280;46163;52.306;5.634;2023-05-23T08:29:25;102117.13;;;20.93;57.95
60319;BME280;46163;52.306;5.634;2023-05-23T08:31:52;102119.38;;;20.96;57.69
60319;BME280;46163;52.306;5.634;2023-05-23T08:34:17;102116.78;;;20.89;57.76
60319;BME280;46163;52.306;5.634;2023-05-23T08:36:43;102142.09;;;20.95;57.65
60319;BME280;46163;52.306;5.634;2023-05-23T08:39:08;102131.25;;;20.95;57.67
60319;BME280;46163;52.306;5.634;2023-05-23T08:41:34;102137.50;;;20.95;57.76
60319;BME280;46163;52.306;5.634;2023-05-23T08:44:00;102142.09;;;20.95;57.32
60319;BME280;46163;52.306;5.634;2023-05-23T08:46:26;102140.78;;;20.97;57.51
60319;BME280;46163;52.306;5.634;2023-05-23T08:48:54;102126.19;;;20.98;57.30
60319;BME280;46163;52.306;5.634;2023-05-23T08:51:21;102125.13;;;20.99;56.98
60319;BME280;46163;52.306;5.634;2023-05-23T08:53:47;102135.69;;;21.01;57.35
60319;BME280;46163;52.306;5.634;2023-05-23T08:56:13;102136.06;;;21.04;57.43
60319;BME280;46163;52.306;5.634;2023-05-23T08:58:40;102149.34;;;21.06;57.55
60319;BME280;46163;52.306;5.634;2023-05-23T09:01:09;102146.41;;;21.07;57.47
60319;BME280;46163;52.306;5.634;2023-05-23T09:03:36;102156.97;;;21.09;57.15
60319;BME280;46163;52.306;5.634;2023-05-23T09:06:04;102149.94;;;21.08;57.16
60319;BME280;46163;52.306;5.634;2023-05-23T09:08:31;102155.09;;;21.09;57.44
60319;BME280;46163;52.306;5.634;2023-05-23T09:10:56;102154.03;;;21.10;57.02
60319;BME280;46163;52.306;5.634;2023-05-23T09:13:22;102166.28;;;21.13;57.38
60319;BME280;46163;52.306;5.634;2023-05-23T09:16:09;102142.38;;;21.10;57.51
60319;BME280;46163;52.306;5.634;2023-05-23T09:21:01;102169.78;;;21.25;57.14
60319;BME280;46163;52.306;5.634;2023-05-23T09:23:30;102172.28;;;21.27;57.01
60319;BME280;46163;52.306;5.634;2023-05-23T09:25:56;102171.41;;;21.26;57.16
60319;BME280;46163;52.306;5.634;2023-05-23T09:28:25;102176.84;;;21.26;56.85
60319;BME280;46163;52.306;5.634;2023-05-23T09:31:06;102175.19;;;21.25;56.80
60319;BME280;46163;52.306;5.634;2023-05-23T09:33:39;102182.25;;;21.26;56.39
60319;BME280;46163;52.306;5.634;2023-05-23T09:36:05;102178.50;;;21.27;56.63
60319;BME280;46163;52.306;5.634;2023-05-23T09:38:38;102175.59;;;21.29;56.18
60319;BME280;46163;52.306;5.634;2023-05-23T09:41:06;102176.16;;;21.31;55.55
60319;BME280;46163;52.306;5.634;2023-05-23T09:43:32;102178.88;;;21.31;55.77
60319;BME280;46163;52.306;5.634;2023-05-23T09:46:09;102179.94;;;21.30;56.10
60319;BME280;46163;52.306;5.634;2023-05-23T09:48:36;102183.22;;;21.32;56.02
60319;BME280;46163;52.306;5.634;2023-05-23T09:51:08;102180.38;;;21.38;55.90
60319;BME280;46163;52.306;5.634;2023-05-23T09:53:34;102180.59;;;21.37;56.08
60319;BME280;46163;52.306;5.634;2023-05-23T09:56:02;102174.34;;;21.36;56.10
60319;BME280;46163;52.306;5.634;2023-05-23T09:58:28;102179.19;;;21.34;55.94
60319;BME280;46163;52.306;5.634;2023-05-23T10:00:59;102182.03;;;21.39;55.59
60319;BME280;46163;52.306;5.634;2023-05-23T10:03:36;102174.47;;;21.41;55.88
60319;BME280;46163;52.306;5.634;2023-05-23T10:06:43;102183.19;;;21.43;55.89
60319;BME280;46163;52.306;5.634;2023-05-23T10:09:12;102190.84;;;21.47;55.70
60319;BME280;46163;52.306;5.634;2023-05-23T10:14:51;102186.69;;;21.56;55.79
60319;BME280;46163;52.306;5.634;2023-05-23T10:17:20;102182.34;;;21.55;55.64
60319;BME280;46163;52.306;5.634;2023-05-23T10:20:07;102185.50;;;21.52;55.42
60319;BME280;46163;52.306;5.634;2023-05-23T10:22:38;102183.38;;;21.54;55.48
60319;BME280;46163;52.306;5.634;2023-05-23T10:25:04;102187.25;;;21.58;55.61
60319;BME280;46163;52.306;5.634;2023-05-23T10:27:31;102186.69;;;21.56;55.62
60319;BME280;46163;52.306;5.634;2023-05-23T10:30:00;102200.69;;;21.53;55.48
60319;BME280;46163;52.306;5.634;2023-05-23T10:32:26;102199.41;;;21.55;55.14
60319;BME280;46163;52.306;5.634;2023-05-23T10:37:38;102197.03;;;21.59;55.32
60319;BME280;46163;52.306;5.634;2023-05-23T10:43:00;102212.78;;;21.62;55.37
60319;BME280;46163;52.306;5.634;2023-05-23T10:45:27;102201.13;;;21.61;55.12
60319;BME280;46163;52.306;5.634;2023-05-23T10:47:52;102203.59;;;21.63;55.32
60319;BME280;46163;52.306;5.634;2023-05-23T10:50:35;102185.13;;;21.60;55.21
60319;BME280;46163;52.306;5.634;2023-05-23T10:53:05;102200.50;;;21.71;55.20
60319;BME280;46163;52.306;5.634;2023-05-23T10:55:32;102199.47;;;21.72;54.84
60319;BME280;46163;52.306;5.634;2023-05-23T10:58:31;102194.13;;;21.77;54.52
60319;BME280;46163;52.306;5.634;2023-05-23T11:09:11;102214.16;;;21.76;55.13
60319;BME280;46163;52.306;5.634;2023-05-23T11:12:02;102218.50;;;21.77;55.33
60319;BME280;46163;52.306;5.634;2023-05-23T11:16:59;102218.50;;;21.77;55.03
60319;BME280;46163;52.306;5.634;2023-05-23T11:19:26;102214.47;;;21.80;54.93
60319;BME280;46163;52.306;5.634;2023-05-23T11:22:00;102225.31;;;21.80;54.93
60319;BME280;46163;52.306;5.634;2023-05-23T11:27:24;102199.91;;;21.81;54.76
60319;BME280;46163;52.306;5.634;2023-05-23T11:30:16;102226.00;;;21.87;54.50
60319;BME280;46163;52.306;5.634;2023-05-23T11:32:52;102216.00;;;21.87;54.78
60319;BME280;46163;52.306;5.634;2023-05-23T11:35:19;102210.25;;;21.84;54.96
60319;BME280;46163;52.306;5.634;2023-05-23T11:37:45;102214.97;;;21.77;54.62
60319;BME280;46163;52.306;5.634;2023-05-23T11:40:29;102219.09;;;21.79;54.25
60319;BME280;46163;52.306;5.634;2023-05-23T11:42:56;102226.16;;;21.80;54.40
60319;BME280;46163;52.306;5.634;2023-05-23T11:45:24;102229.47;;;21.82;54.79
60319;BME280;46163;52.306;5.634;2023-05-23T11:47:50;102226.50;;;21.84;55.17
60319;BME280;46163;52.306;5.634;2023-05-23T11:50:16;102234.88;;;21.82;55.25
60319;BME280;46163;52.306;5.634;2023-05-23T11:52:44;102209.22;;;21.73;55.31
60319;BME280;46163;52.306;5.634;2023-05-23T11:55:16;102226.81;;;21.87;54.70
60319;BME280;46163;52.306;5.634;2023-05-23T11:57:42;102224.47;;;21.91;54.79
60319;BME280;46163;52.306;5.634;2023-05-23T12:00:09;102217.63;;;21.88;54.65
60319;BME280;46163;52.306;5.634;2023-05-23T12:02:39;102226.81;;;21.87;55.43
60319;BME280;46163;52.306;5.634;2023-05-23T12:05:14;102231.44;;;21.87;54.69
60319;BME280;46163;52.306;5.634;2023-05-23T12:07:48;102228.97;;;21.85;55.10
60319;BME280;46163;52.306;5.634;2023-05-23T12:10:17;102231.69;;;21.85;55.05
60319;BME280;46163;52.306;5.634;2023-05-23T12:12:45;102227.31;;;21.84;54.56
60319;BME280;46163;52.306;5.634;2023-05-23T12:15:11;102240.63;;;21.86;55.23
60319;BME280;46163;52.306;5.634;2023-05-23T12:17:38;102235.69;;;21.83;55.04
60319;BME280;46163;52.306;5.634;2023-05-23T12:20:10;102233.06;;;21.88;55.51
60319;BME280;46163;52.306;5.634;2023-05-23T12:22:38;102235.88;;;21.93;55.05
60319;BME280;46163;52.306;5.634;2023-05-23T12:25:07;102244.59;;;21.95;55.32
60319;BME280;46163;52.306;5.634;2023-05-23T12:27:34;102231.53;;;21.92;54.74
60319;BME280;46163;52.306;5.634;2023-05-23T12:30:07;102241.56;;;21.91;55.02
60319;BME280;46163;52.306;5.634;2023-05-23T12:32:42;102245.66;;;21.94;55.25
60319;BME280;46163;52.306;5.634;2023-05-23T12:35:09;102250.38;;;21.98;55.05
60319;BME280;46163;52.306;5.634;2023-05-23T12:37:38;102245.53;;;22.00;55.22
60319;BME280;46163;52.306;5.634;2023-05-23T12:40:17;102241.75;;;22.01;54.72
60319;BME280;46163;52.306;5.634;2023-05-23T12:42:54;102240.81;;;22.08;55.13
60319;BME280;46163;52.306;5.634;2023-05-23T12:45:31;102237.03;;;22.09;54.51
60319;BME280;46163;52.306;5.634;2023-05-23T12:48:01;102238.41;;;22.11;54.39
60319;BME280;46163;52.306;5.634;2023-05-23T12:50:27;102243.03;;;22.11;54.54
60319;BME280;46163;52.306;5.634;2023-05-23T12:52:52;102244.66;;;22.12;54.42
60319;BME280;46163;52.306;5.634;2023-05-23T12:55:18;102245.72;;;22.11;54.63
60319;BME280;46163;52.306;5.634;2023-05-23T12:57:43;102223.25;;;21.98;54.98
60319;BME280;46163;52.306;5.634;2023-05-23T13:00:10;102249.94;;;22.18;54.99
60319;BME280;46163;52.306;5.634;2023-05-23T13:02:35;102260.22;;;22.16;54.67
60319;BME280;46163;52.306;5.634;2023-05-23T13:05:02;102255.63;;;22.17;54.98
60319;BME280;46163;52.306;5.634;2023-05-23T13:07:27;102253.47;;;22.19;54.70
60319;BME280;46163;52.306;5.634;2023-05-23T13:09:53;102253.22;;;22.20;54.71
60319;BME280;46163;52.306;5.634;2023-05-23T13:12:19;102250.91;;;22.12;54.49
60319;BME280;46163;52.306;5.634;2023-05-23T13:14:45;102260.78;;;22.18;54.60
60319;BME280;46163;52.306;5.634;2023-05-23T13:17:11;102262.69;;;22.18;54.87
60319;BME280;46163;52.306;5.634;2023-05-23T13:19:36;102265.38;;;22.18;54.94
60319;BME280;46163;52.306;5.634;2023-05-23T13:22:05;102268.09;;;22.18;55.05
60319;BME280;46163;52.306;5.634;2023-05-23T13:24:38;102262.44;;;22.19;54.77
60319;BME280;46163;52.306;5.634;2023-05-23T13:27:05;102257.00;;;22.19;54.96
60319;BME280;46163;52.306;5.634;2023-05-23T13:29:31;102261.47;;;22.25;54.71